»·PEaware :: N800DW KSMX-KBFL

N800DW :: KSMX-KBFL

FLIGHT INFORMATION

Flight Status: Arrived
Operator: Privately registered:
United States
More flights under this callsign
Pilot: Scott L. (17677)
Aircraft: CESSNA 172 SKYHAWK
(C172)
More flights by this aircraft type
Origin: KSMX Santa Maria Pub/Capt Hancock
United States
Destination: KBFL Meadows
United States
More flights between these airports :: More routes between these airports
Route: DIRECT
File this flight plan on PilotEdge
Remarks: CAT 05
Altitude:
(Current/Filed)
7,500ft
Speed:
(Current/Filed)
120kts
Departed: 31-Dec-17 12:04 PM
Arrived: 31-Dec-17 12:45 PM
Distance/Time
Traveled:
76nm/0:40
Distance/Time
To Go:
Arrived

Flight Plot

Page will automatically refresh every two minutes.


Map Options




Map Legend


Flown Route
Filed Route
Departure Airport
Arrival Airport
Navaid (VOR, NDB)
Fix

Horizontal Profiles

Position Reports

Time Latitude Longitude Heading Altitude Ground
Speed
31-Dec-17 11:55 34.900781 -120.451521 238 265ft 0kts
31-Dec-17 11:56 34.900781 -120.451521 238 265ft 0kts
31-Dec-17 11:57 34.900781 -120.451521 238 265ft 0kts
31-Dec-17 11:58 34.900781 -120.451521 238 265ft 0kts
31-Dec-17 11:59 34.900781 -120.451521 238 265ft 0kts
31-Dec-17 12:00 34.900781 -120.451521 238 265ft 0kts
31-Dec-17 12:01 34.900781 -120.451521 238 265ft 0kts
31-Dec-17 12:02 34.900781 -120.451521 238 265ft 0kts
31-Dec-17 12:03 34.900447 -120.451552 157 265ft 9kts
31-Dec-17 12:04 34.898842 -120.450491 136 265ft 10kts
31-Dec-17 12:05 34.896435 -120.447660 135 265ft 12kts
31-Dec-17 12:06 34.894120 -120.444963 156 265ft 8kts
31-Dec-17 12:07 34.893706 -120.444763 252 265ft 0kts
31-Dec-17 12:08 34.893258 -120.444940 184 265ft 0kts
31-Dec-17 12:09 34.893257 -120.444940 183 265ft 0kts
31-Dec-17 12:10 34.899279 -120.453860 312 358ft 101kts
31-Dec-17 12:11 34.921905 -120.456952 63 1184ft 107kts
31-Dec-17 12:12 34.922681 -120.420917 83 1876ft 107kts
31-Dec-17 12:13 34.929728 -120.386211 70 2571ft 105kts
31-Dec-17 12:14 34.940428 -120.353279 65 3268ft 104kts
31-Dec-17 12:15 34.951806 -120.322249 64 3950ft 102kts
31-Dec-17 12:16 34.963663 -120.291120 63 4649ft 100kts
31-Dec-17 12:17 34.975413 -120.260645 62 5346ft 98kts
31-Dec-17 12:18 34.986946 -120.230863 61 6039ft 96kts
31-Dec-17 12:19 34.998566 -120.200955 67 6738ft 99kts
31-Dec-17 12:20 35.010417 -120.170239 66 7441ft 100kts
31-Dec-17 12:21 35.024213 -120.134225 66 7536ft 133kts
31-Dec-17 12:22 35.040199 -120.092608 65 7486ft 136kts
31-Dec-17 12:23 35.056277 -120.050871 65 7485ft 136kts
31-Dec-17 12:24 35.072369 -120.009079 65 7485ft 136kts
31-Dec-17 12:25 35.088498 -119.967147 65 7485ft 136kts
31-Dec-17 12:26 35.104074 -119.926603 65 7484ft 136kts
31-Dec-17 12:27 35.120106 -119.884807 65 7484ft 136kts
31-Dec-17 12:28 35.136145 -119.842940 64 7484ft 136kts
31-Dec-17 12:29 35.152171 -119.801057 64 7483ft 136kts
31-Dec-17 12:30 35.168004 -119.759631 63 7546ft 134kts
31-Dec-17 12:31 35.183944 -119.717880 64 7545ft 136kts
31-Dec-17 12:32 35.200476 -119.674484 65 7289ft 144kts
31-Dec-17 12:33 35.217372 -119.630076 66 6989ft 144kts
31-Dec-17 12:34 35.234239 -119.585907 66 6686ft 142kts
31-Dec-17 12:35 35.250930 -119.542225 66 6384ft 141kts
31-Dec-17 12:36 35.267409 -119.498798 66 6081ft 140kts
31-Dec-17 12:37 35.284044 -119.454879 66 5630ft 143kts
31-Dec-17 12:38 35.300613 -119.411057 66 5127ft 141kts
31-Dec-17 12:39 35.316724 -119.368332 66 4621ft 133kts
31-Dec-17 12:40 35.332042 -119.327714 67 4124ft 132kts
31-Dec-17 12:41 35.347456 -119.286823 67 3624ft 133kts
31-Dec-17 12:42 35.362141 -119.247734 67 3120ft 117kts
31-Dec-17 12:43 35.375644 -119.211803 66 2619ft 115kts
31-Dec-17 12:44 35.388958 -119.176348 66 2124ft 115kts
31-Dec-17 12:45 35.402371 -119.140592 66 1624ft 115kts
31-Dec-17 12:46 35.416003 -119.104220 66 1176ft 115kts
31-Dec-17 12:47 35.425098 -119.070924 123 1242ft 98kts
31-Dec-17 12:48 35.407998 -119.045481 119 1461ft 75kts
31-Dec-17 12:49 35.419855 -119.043031 310 872ft 74kts
31-Dec-17 12:50 35.432793 -119.058457 314 483ft 43kts
31-Dec-17 12:51 35.434822 -119.060053 44 486ft 0kts
31-Dec-17 12:52 35.435133 -119.059639 46 487ft 3kts
31-Dec-17 12:53 35.435743 -119.056188 125 493ft 9kts
31-Dec-17 12:54 35.437027 -119.054745 274 500ft 0kts
31-Dec-17 12:55 35.437027 -119.054745 274 500ft 0kts

Navigation Log

Ident Type
1. KSMX Airport
2. KBFL Airport